Time;durP1;ratioP1;P1;durP2;ratioP2;P2;SDS_P1;SDS_P2;PMS_P1;PMS_P2;Temp;Humidity;BMP_temperature;BMP_pressure;BME280_temperature;BME280_humidity;BME280_pressure;Samples;Min_cycle;Max_cycle;Signal;HPM_P1;HPM_P2
2023/01/16 04:00:59;;;;;;;;;;;3.40;99.90;;;;;;6012411;23;19947;-74
2023/01/16 04:03:28;;;;;;;;;;;3.50;99.90;;;;;;4917852;29;19987;-78
2023/01/16 04:05:56;;;;;;;;;;;3.50;99.90;;;;;;4900649;29;20399;-78
2023/01/16 04:08:26;;;;;;;;;;;3.50;99.90;;;;;;4908955;29;19997;-75
2023/01/16 04:10:53;;;;;;;;;;;3.60;99.90;;;;;;4927491;29;19959;-76
2023/01/16 04:13:21;;;;;;;;;;;3.60;99.90;;;;;;4908626;29;20022;-75
2023/01/16 04:15:50;;;;;;;;;;;3.70;99.90;;;;;;4917324;29;19958;-74
2023/01/16 04:18:16;;;;;;;;;;;3.70;99.90;;;;;;4908105;29;19974;-73
2023/01/16 04:20:45;;;;;;;;;;;3.70;99.90;;;;;;4919195;29;19928;-75
2023/01/16 04:23:12;;;;;;;;;;;3.70;99.90;;;;;;4917448;29;20362;-75
2023/01/16 04:25:39;;;;;;;;;;;3.70;99.90;;;;;;4917118;29;19931;-75
2023/01/16 04:28:06;;;;;;;;;;;3.80;99.90;;;;;;4918848;29;19927;-75
2023/01/16 04:30:33;;;;;;;;;;;3.80;99.90;;;;;;4933856;29;19978;-74
2023/01/16 04:33:02;;;;;;;;;;;3.80;99.90;;;;;;4909702;29;19932;-74
2023/01/16 04:35:29;;;;;;;;;;;3.90;99.90;;;;;;4921048;29;20026;-75
2023/01/16 04:37:56;;;;;;;;;;;3.90;99.90;;;;;;4917720;29;19927;-76
2023/01/16 04:40:23;;;;;;;;;;;4.00;99.90;;;;;;4911670;29;19932;-74
2023/01/16 04:42:49;;;;;;;;;;;4.00;99.90;;;;;;4916445;29;20453;-75
2023/01/16 04:45:16;;;;;;;;;;;4.10;99.90;;;;;;4918989;29;19942;-73
2023/01/16 04:47:45;;;;;;;;;;;4.10;99.90;;;;;;4946790;23;19938;-70
2023/01/16 04:50:13;;;;;;;;;;;4.20;99.90;;;;;;4931452;29;19970;-69
2023/01/16 04:52:40;;;;;;;;;;;4.10;99.90;;;;;;4928878;29;19970;-70
2023/01/16 04:55:07;;;;;;;;;;;4.20;99.90;;;;;;4929828;29;20477;-70
2023/01/16 04:57:34;;;;;;;;;;;4.20;99.90;;;;;;4929548;29;19927;-70
2023/01/16 05:00:01;;;;;;;;;;;4.20;99.90;;;;;;4924466;29;19991;-70
2023/01/16 05:02:28;;;;;;;;;;;4.20;99.90;;;;;;4927337;29;19933;-70
2023/01/16 05:04:54;;;;;;;;;;;4.20;99.90;;;;;;4922670;29;19931;-71
2023/01/16 05:07:25;;;;;;;;;;;4.30;99.90;;;;;;4924191;29;19934;-70
2023/01/16 05:09:51;;;;;;;;;;;4.30;99.90;;;;;;4918124;29;19979;-69
2023/01/16 05:12:18;;;;;;;;;;;4.30;99.90;;;;;;4926929;29;19927;-70
2023/01/16 05:14:45;;;;;;;;;;;4.30;99.90;;;;;;4927832;29;19935;-70
2023/01/16 05:17:12;;;;;;;;;;;4.30;99.90;;;;;;4923101;29;20026;-70
2023/01/16 05:19:38;;;;;;;;;;;4.30;99.90;;;;;;4931346;29;20363;-69
2023/01/16 05:22:05;;;;;;;;;;;4.30;99.90;;;;;;4925339;29;19978;-71
2023/01/16 05:24:33;;;;;;;;;;;4.30;99.90;;;;;;4926294;29;20286;-69
2023/01/16 05:27:00;;;;;;;;;;;4.30;99.90;;;;;;4913475;29;19935;-68
2023/01/16 05:29:27;;;;;;;;;;;4.30;99.90;;;;;;4919668;29;20363;-70
2023/01/16 05:31:54;;;;;;;;;;;4.40;99.90;;;;;;4926943;29;19978;-70
2023/01/16 05:34:21;;;;;;;;;;;4.40;99.90;;;;;;4923085;29;19927;-70
2023/01/16 05:36:47;;;;;;;;;;;4.40;99.90;;;;;;4915719;29;20006;-70
2023/01/16 05:39:14;;;;;;;;;;;4.40;99.90;;;;;;4926025;29;19983;-71
2023/01/16 05:41:45;;;;;;;;;;;4.40;99.90;;;;;;4925558;29;19927;-71
2023/01/16 05:44:12;;;;;;;;;;;4.40;99.90;;;;;;4907985;29;19931;-73
2023/01/16 05:46:39;;;;;;;;;;;4.40;99.90;;;;;;4909696;29;19927;-71
2023/01/16 05:49:05;;;;;;;;;;;4.40;99.90;;;;;;4910643;29;19971;-74
2023/01/16 05:51:32;;;;;;;;;;;4.50;99.90;;;;;;4906545;29;19928;-73
2023/01/16 05:53:59;;;;;;;;;;;4.50;99.90;;;;;;4908262;29;19951;-72
2023/01/16 05:56:26;;;;;;;;;;;4.50;99.90;;;;;;4915495;29;19927;-70
2023/01/16 05:58:57;;;;;;;;;;;4.60;99.90;;;;;;4917850;29;19974;-70
2023/01/16 06:01:23;;;;;;;;;;;4.60;99.90;;;;;;4919741;29;20410;-70
2023/01/16 06:03:50;;;;;;;;;;;4.60;99.90;;;;;;4906196;29;20442;-70
2023/01/16 06:06:17;;;;;;;;;;;4.60;99.90;;;;;;4912472;29;19928;-70
2023/01/16 06:08:44;;;;;;;;;;;4.70;99.90;;;;;;4914068;29;19931;-70
2023/01/16 06:11:11;;;;;;;;;;;4.70;99.90;;;;;;4915561;29;20395;-70
2023/01/16 06:13:38;;;;;;;;;;;4.70;99.90;;;;;;4913694;29;19931;-71
2023/01/16 06:16:06;;;;;;;;;;;4.70;99.90;;;;;;4920382;29;19986;-70
2023/01/16 06:18:33;;;;;;;;;;;4.70;99.90;;;;;;4922649;29;19934;-70
2023/01/16 06:21:00;;;;;;;;;;;4.80;99.90;;;;;;4911191;29;19942;-71
2023/01/16 06:23:27;;;;;;;;;;;4.80;99.90;;;;;;4917274;29;19927;-71
2023/01/16 06:25:53;;;;;;;;;;;4.80;99.90;;;;;;4921174;29;19926;-71
2023/01/16 06:28:20;;;;;;;;;;;4.80;99.90;;;;;;4918229;29;19935;-71
2023/01/16 06:30:50;;;;;;;;;;;4.80;99.90;;;;;;4923404;29;20367;-71
2023/01/16 06:33:19;;;;;;;;;;;4.80;99.90;;;;;;4927808;29;19927;-71
2023/01/16 06:35:45;;;;;;;;;;;4.80;99.90;;;;;;4926134;29;19935;-70
2023/01/16 06:38:12;;;;;;;;;;;4.80;99.90;;;;;;4920864;29;19927;-68
2023/01/16 06:40:39;;;;;;;;;;;4.80;99.90;;;;;;4923697;29;19949;-71
2023/01/16 06:43:06;;;;;;;;;;;4.90;99.90;;;;;;4926862;29;19931;-70
2023/01/16 06:45:32;;;;;;;;;;;4.90;99.90;;;;;;4918143;29;19931;-70
2023/01/16 06:48:01;;;;;;;;;;;5.00;99.90;;;;;;4919542;29;20109;-72
2023/01/16 06:50:29;;;;;;;;;;;5.00;99.90;;;;;;4923369;29;19927;-70
2023/01/16 06:52:56;;;;;;;;;;;5.00;99.90;;;;;;4922474;29;19931;-70
2023/01/16 06:55:23;;;;;;;;;;;5.00;99.90;;;;;;4924521;29;19927;-70
2023/01/16 06:57:49;;;;;;;;;;;5.00;99.90;;;;;;4920785;29;19934;-70
2023/01/16 07:00:16;;;;;;;;;;;5.10;99.90;;;;;;4921728;29;20302;-70
2023/01/16 07:02:43;;;;;;;;;;;5.10;99.90;;;;;;4921469;29;19934;-70
2023/01/16 07:05:11;;;;;;;;;;;5.20;99.90;;;;;;4922992;29;19927;-70
2023/01/16 07:07:39;;;;;;;;;;;5.20;99.90;;;;;;4922451;29;20050;-69
2023/01/16 07:10:06;;;;;;;;;;;5.20;99.90;;;;;;4923442;29;19931;-70
2023/01/16 07:12:32;;;;;;;;;;;5.20;99.90;;;;;;4922421;29;19935;-70
2023/01/16 07:23:19;;;;;;;;;;;5.20;99.90;;;;;;4924307;29;19974;-70
2023/01/16 07:25:47;;;;;;;;;;;5.20;99.90;;;;;;4925773;29;20398;-70
2023/01/16 07:28:13;;;;;;;;;;;5.20;99.90;;;;;;4924127;29;19986;-72
2023/01/16 07:30:40;;;;;;;;;;;5.20;99.90;;;;;;4914840;29;20026;-70
2023/01/16 07:33:07;;;;;;;;;;;5.20;99.90;;;;;;4925840;29;19947;-72
2023/01/16 07:35:34;;;;;;;;;;;5.20;99.90;;;;;;4922851;29;19926;-70
2023/01/16 07:38:01;;;;;;;;;;;5.20;99.90;;;;;;4918301;29;19927;-68
2023/01/16 07:40:29;;;;;;;;;;;5.10;99.90;;;;;;4924132;29;20003;-72
2023/01/16 07:42:56;;;;;;;;;;;5.10;99.90;;;;;;4921389;29;19931;-70
2023/01/16 07:45:22;;;;;;;;;;;5.10;99.90;;;;;;4922875;29;19933;-72
2023/01/16 07:47:49;;;;;;;;;;;5.10;99.90;;;;;;4924304;29;19927;-70
2023/01/16 07:50:16;;;;;;;;;;;5.10;99.90;;;;;;4923300;29;19931;-71
2023/01/16 07:52:43;;;;;;;;;;;5.10;99.90;;;;;;4927927;29;19927;-72
2023/01/16 07:55:10;;;;;;;;;;;5.10;99.90;;;;;;4926869;29;19934;-70
2023/01/16 07:57:38;;;;;;;;;;;5.10;99.90;;;;;;4927647;29;19927;-71
2023/01/16 08:00:06;;;;;;;;;;;5.10;99.90;;;;;;4926091;29;19934;-71
2023/01/16 08:02:38;;;;;;;;;;;5.10;99.90;;;;;;4932259;29;20026;-70
2023/01/16 08:05:05;;;;;;;;;;;5.10;99.90;;;;;;4923807;29;19957;-71
2023/01/16 08:07:32;;;;;;;;;;;5.10;99.90;;;;;;4921293;29;19927;-72
2023/01/16 08:09:59;;;;;;;;;;;5.10;99.90;;;;;;4925685;29;20386;-72
2023/01/16 08:12:25;;;;;;;;;;;5.20;99.90;;;;;;4926011;29;19931;-71
2023/01/16 08:14:54;;;;;;;;;;;5.20;99.90;;;;;;4920011;29;20390;-70
2023/01/16 08:17:20;;;;;;;;;;;5.20;99.90;;;;;;4923243;29;19926;-71
2023/01/16 08:19:47;;;;;;;;;;;5.20;99.90;;;;;;4927373;29;19939;-72
2023/01/16 08:22:14;;;;;;;;;;;5.10;99.90;;;;;;4925652;29;19934;-70
2023/01/16 08:24:41;;;;;;;;;;;5.10;99.90;;;;;;4928821;29;19927;-70
2023/01/16 08:27:07;;;;;;;;;;;5.10;99.90;;;;;;4927368;29;20358;-70
2023/01/16 08:29:34;;;;;;;;;;;5.10;99.90;;;;;;4923783;29;19951;-70
2023/01/16 08:32:03;;;;;;;;;;;5.10;99.90;;;;;;4929909;29;19927;-69
2023/01/16 08:34:29;;;;;;;;;;;5.00;99.90;;;;;;4923265;29;19927;-70
2023/01/16 08:36:57;;;;;;;;;;;5.00;99.90;;;;;;4931019;29;19931;-71
2023/01/16 08:39:25;;;;;;;;;;;5.00;99.90;;;;;;4924698;29;19931;-71
2023/01/16 08:52:55;;;;;;;;;;;5.00;99.90;;;;;;4923964;29;19936;-70
2023/01/16 08:55:22;;;;;;;;;;;4.90;99.90;;;;;;4929343;29;19927;-70
2023/01/16 08:57:49;;;;;;;;;;;4.90;99.90;;;;;;4926914;29;19931;-70
2023/01/16 09:00:18;;;;;;;;;;;4.90;99.90;;;;;;4922707;28;20289;-70
2023/01/16 09:02:47;;;;;;;;;;;4.90;99.90;;;;;;4921317;29;19931;-70
2023/01/16 09:05:13;;;;;;;;;;;4.90;99.90;;;;;;4922706;29;19938;-72
2023/01/16 09:07:40;;;;;;;;;;;4.90;99.90;;;;;;4929587;29;19926;-70
2023/01/16 09:10:07;;;;;;;;;;;4.90;99.90;;;;;;4925931;29;19938;-70
2023/01/16 09:15:23;;;;;;;;;;;5.00;99.90;;;;;;4873708;29;20291;-69
2023/01/16 09:17:52;;;;;;;;;;;5.00;99.90;;;;;;4925512;29;19927;-72
2023/01/16 09:20:18;;;;;;;;;;;5.00;99.90;;;;;;4918592;29;19927;-72
2023/01/16 09:22:45;;;;;;;;;;;5.00;99.90;;;;;;4927582;29;19939;-70
2023/01/16 09:25:12;;;;;;;;;;;5.00;99.90;;;;;;4925287;29;19937;-70
2023/01/16 09:27:39;;;;;;;;;;;5.00;99.90;;;;;;4922977;29;19985;-70
2023/01/16 09:30:06;;;;;;;;;;;5.00;99.90;;;;;;4921801;29;20287;-70
2023/01/16 09:32:33;;;;;;;;;;;5.00;99.90;;;;;;4925364;29;19934;-70
2023/01/16 09:35:01;;;;;;;;;;;5.10;99.90;;;;;;4927610;29;20370;-70
2023/01/16 09:37:28;;;;;;;;;;;5.10;99.90;;;;;;4925864;29;19926;-70
2023/01/16 09:39:55;;;;;;;;;;;5.10;99.90;;;;;;4920755;29;19950;-71
2023/01/16 09:45:17;;;;;;;;;;;5.10;99.90;;;;;;4917563;29;20400;-70
2023/01/16 09:47:47;;;;;;;;;;;5.20;99.90;;;;;;4925062;29;20002;-71
2023/01/16 09:50:17;;;;;;;;;;;5.20;99.90;;;;;;4925115;29;20055;-71
2023/01/16 09:58:38;;;;;;;;;;;5.30;99.90;;;;;;4926070;29;19937;-72
2023/01/16 10:01:06;;;;;;;;;;;5.40;99.90;;;;;;4923086;29;20365;-72
2023/01/16 10:03:33;;;;;;;;;;;5.50;99.90;;;;;;4922293;29;19927;-70
2023/01/16 10:06:07;;;;;;;;;;;5.50;99.90;;;;;;4926891;29;19927;-70
2023/01/16 10:08:37;;;;;;;;;;;5.60;99.90;;;;;;4924262;29;19927;-71
2023/01/16 10:11:07;;;;;;;;;;;5.60;99.90;;;;;;4922196;29;20311;-70
2023/01/16 10:13:50;;;;;;;;;;;5.60;99.90;;;;;;4925811;29;19926;-72
2023/01/16 10:16:20;;;;;;;;;;;5.60;99.90;;;;;;4920728;29;19935;-70
2023/01/16 10:18:51;;;;;;;;;;;5.80;99.90;;;;;;4913194;29;19932;-71
2023/01/16 10:21:26;;;;;;;;;;;5.90;99.90;;;;;;4919942;29;19931;-71
2023/01/16 10:23:54;;;;;;;;;;;6.00;99.90;;;;;;4920195;29;19966;-71
2023/01/16 10:26:24;;;;;;;;;;;6.10;99.90;;;;;;4916765;29;19926;-71
2023/01/16 10:28:55;;;;;;;;;;;6.10;99.90;;;;;;4928111;29;19926;-70
2023/01/16 10:31:25;;;;;;;;;;;6.30;99.90;;;;;;4922634;29;19999;-70
2023/01/16 10:33:56;;;;;;;;;;;6.50;99.90;;;;;;4920613;29;20037;-71
2023/01/16 10:36:22;;;;;;;;;;;;;;;;;;4920892;29;19969;-71
2023/01/16 10:38:55;;;;;;;;;;;7.20;99.90;;;;;;4926197;29;20402;-70
2023/01/16 10:49:48;;;;;;;;;;;7.60;99.90;;;;;;4920005;29;19926;-70
2023/01/16 10:52:14;;;;;;;;;;;7.40;99.90;;;;;;4920967;29;20030;-72
2023/01/16 10:54:42;;;;;;;;;;;7.30;99.90;;;;;;4926067;29;19927;-70
2023/01/16 10:57:14;;;;;;;;;;;7.30;99.90;;;;;;4923049;29;19926;-70
2023/01/16 10:59:41;;;;;;;;;;;7.40;99.90;;;;;;4926901;29;19962;-70
2023/01/16 11:02:16;;;;;;;;;;;7.50;99.90;;;;;;4925170;29;19931;-70
2023/01/16 11:04:42;;;;;;;;;;;7.60;99.90;;;;;;4922937;29;19927;-70
2023/01/16 11:07:16;;;;;;;;;;;7.70;99.90;;;;;;4924107;29;20075;-71
2023/01/16 11:09:45;;;;;;;;;;;7.70;99.90;;;;;;4919723;29;20359;-72
2023/01/16 11:20:51;;;;;;;;;;;7.40;99.90;;;;;;4884444;29;20371;-70
2023/01/16 11:23:19;;;;;;;;;;;7.30;99.90;;;;;;4888832;29;19928;-72
2023/01/16 11:25:49;;;;;;;;;;;7.30;99.90;;;;;;4900739;29;19936;-72
2023/01/16 11:28:19;;;;;;;;;;;7.30;99.90;;;;;;4924208;29;19927;-71
2023/01/16 11:30:47;;;;;;;;;;;7.40;99.90;;;;;;4928271;29;19931;-70
2023/01/16 11:33:15;;;;;;;;;;;7.30;99.90;;;;;;4924718;29;19970;-70
2023/01/16 11:35:44;;;;;;;;;;;7.30;99.90;;;;;;4928556;29;19927;-70
2023/01/16 11:38:14;;;;;;;;;;;7.30;99.90;;;;;;4926860;29;20373;-71
2023/01/16 11:40:45;;;;;;;;;;;7.20;99.90;;;;;;4925515;29;19927;-70
2023/01/16 11:46:02;;;;;;;;;;;7.20;99.90;;;;;;4919345;29;19927;-71
2023/01/16 11:48:34;;;;;;;;;;;7.20;99.90;;;;;;4927041;29;20422;-71
2023/01/16 11:51:02;;;;;;;;;;;7.20;99.90;;;;;;4929362;29;20453;-71
2023/01/16 11:53:29;;;;;;;;;;;7.20;99.90;;;;;;4931033;29;19990;-73
2023/01/16 11:56:03;;;;;;;;;;;7.20;99.90;;;;;;4928523;29;19975;-72
2023/01/16 11:58:36;;;;;;;;;;;7.10;99.90;;;;;;4925913;29;19933;-70
2023/01/16 12:01:07;;;;;;;;;;;7.10;99.90;;;;;;4926677;29;19927;-71
2023/01/16 12:03:42;;;;;;;;;;;7.10;99.90;;;;;;4926525;29;19931;-73
2023/01/16 12:06:12;;;;;;;;;;;7.10;99.90;;;;;;4928611;29;20050;-71
2023/01/16 12:08:46;;;;;;;;;;;7.10;99.90;;;;;;4927524;29;20029;-71
2023/01/16 12:11:14;;;;;;;;;;;7.20;99.90;;;;;;4922443;29;19934;-71
2023/01/16 12:16:38;;;;;;;;;;;7.20;99.90;;;;;;4926288;29;19934;-71
2023/01/16 12:19:13;;;;;;;;;;;7.20;99.90;;;;;;4924919;29;20025;-71
2023/01/16 12:21:42;;;;;;;;;;;7.20;99.90;;;;;;4926731;29;19966;-71
2023/01/16 12:24:15;;;;;;;;;;;7.20;99.90;;;;;;4927374;29;20402;-72
2023/01/16 12:26:47;;;;;;;;;;;7.20;99.90;;;;;;4928895;29;19931;-71
2023/01/16 12:29:22;;;;;;;;;;;7.20;99.90;;;;;;4918646;29;20021;-71
2023/01/16 12:32:02;;;;;;;;;;;7.20;99.90;;;;;;4927332;29;19974;-70
2023/01/16 12:34:38;;;;;;;;;;;7.20;99.90;;;;;;4925133;29;20445;-72
2023/01/16 12:37:10;;;;;;;;;;;7.20;99.90;;;;;;4921853;29;19928;-73
2023/01/16 12:39:40;;;;;;;;;;;7.10;99.90;;;;;;4924028;29;19974;-73
2023/01/16 12:45:04;;;;;;;;;;;7.00;99.90;;;;;;4912549;29;20308;-71
2023/01/16 12:47:46;;;;;;;;;;;7.00;99.90;;;;;;4926005;29;19927;-71
2023/01/16 12:50:18;;;;;;;;;;;7.00;99.90;;;;;;4923175;29;20350;-71
2023/01/16 12:52:52;;;;;;;;;;;7.00;99.90;;;;;;4926100;29;20363;-71
2023/01/16 12:55:23;;;;;;;;;;;7.00;99.90;;;;;;4923893;29;20308;-71
2023/01/16 12:58:03;;;;;;;;;;;6.90;99.90;;;;;;4923101;29;19970;-71
2023/01/16 13:00:37;;;;;;;;;;;6.90;99.90;;;;;;4916145;29;20404;-73
2023/01/16 13:03:11;;;;;;;;;;;6.90;99.90;;;;;;4929733;29;19927;-71
2023/01/16 13:05:39;;;;;;;;;;;6.90;99.90;;;;;;4926573;29;19975;-72
2023/01/16 13:08:10;;;;;;;;;;;6.80;99.90;;;;;;4925893;29;19927;-71
2023/01/16 13:13:26;;;;;;;;;;;6.70;99.90;;;;;;4921369;29;19923;-72
2023/01/16 13:16:00;;;;;;;;;;;6.70;99.90;;;;;;4914863;29;19927;-71
2023/01/16 13:18:28;;;;;;;;;;;6.70;99.90;;;;;;4917134;29;20331;-72
2023/01/16 13:20:57;;;;;;;;;;;6.70;99.90;;;;;;4926004;29;20014;-71
2023/01/16 13:23:25;;;;;;;;;;;6.70;99.90;;;;;;4925436;29;19938;-72
2023/01/16 13:25:56;;;;;;;;;;;6.60;99.90;;;;;;4920351;29;19956;-72
2023/01/16 13:28:26;;;;;;;;;;;6.70;99.90;;;;;;4921559;29;20350;-71
2023/01/16 13:30:53;;;;;;;;;;;6.70;99.90;;;;;;4919382;29;20033;-71
2023/01/16 13:33:24;;;;;;;;;;;6.60;99.90;;;;;;4920571;29;19928;-73
2023/01/16 13:35:57;;;;;;;;;;;6.60;99.90;;;;;;4919467;29;19935;-72
2023/01/16 13:38:32;;;;;;;;;;;6.60;99.90;;;;;;4920012;29;19927;-71
2023/01/16 13:41:10;;;;;;;;;;;6.60;99.90;;;;;;4922514;29;20030;-71
2023/01/16 13:46:24;;;;;;;;;;;6.50;99.90;;;;;;4926897;29;19926;-72
2023/01/16 13:48:53;;;;;;;;;;;6.40;99.90;;;;;;4923911;29;20395;-72
2023/01/16 13:51:23;;;;;;;;;;;6.40;99.90;;;;;;4923279;29;19974;-71
2023/01/16 13:53:51;;;;;;;;;;;6.30;99.90;;;;;;4926176;29;19962;-74
2023/01/16 13:56:20;;;;;;;;;;;6.30;99.90;;;;;;4923843;29;19927;-71
2023/01/16 13:58:49;;;;;;;;;;;6.30;99.90;;;;;;4921650;29;19939;-73
2023/01/16 14:01:32;;;;;;;;;;;6.30;99.90;;;;;;4924761;29;19991;-72
2023/01/16 14:04:18;;;;;;;;;;;6.20;99.90;;;;;;4917898;29;20505;-71
2023/01/16 14:06:48;;;;;;;;;;;6.10;99.90;;;;;;4924280;29;19928;-71
2023/01/16 14:09:20;;;;;;;;;;;6.00;99.90;;;;;;4920473;29;19985;-72
2023/01/16 14:12:00;;;;;;;;;;;6.00;99.90;;;;;;4918674;29;19937;-71
2023/01/16 14:17:27;;;;;;;;;;;5.80;99.90;;;;;;4924336;29;19923;-71
2023/01/16 14:19:55;;;;;;;;;;;5.80;99.90;;;;;;4910369;29;19934;-71
2023/01/16 14:25:17;;;;;;;;;;;5.70;99.90;;;;;;4921323;29;19977;-71
2023/01/16 14:27:48;;;;;;;;;;;5.70;99.90;;;;;;4912213;29;19935;-71
2023/01/16 14:30:17;;;;;;;;;;;5.70;99.90;;;;;;4932244;29;19927;-71
2023/01/16 14:32:46;;;;;;;;;;;5.70;99.90;;;;;;4919687;29;19927;-69
2023/01/16 14:35:14;;;;;;;;;;;5.70;99.90;;;;;;4928925;29;20029;-70
2023/01/16 14:37:44;;;;;;;;;;;5.70;99.90;;;;;;4927923;29;19971;-71
2023/01/16 14:40:19;;;;;;;;;;;5.70;99.90;;;;;;4921625;29;19942;-71
2023/01/16 14:56:51;;;;;;;;;;;5.60;99.90;;;;;;4927809;29;19930;-73
2023/01/16 14:59:21;;;;;;;;;;;5.60;99.90;;;;;;4926498;29;19930;-71
2023/01/16 15:04:40;;;;;;;;;;;5.60;99.90;;;;;;4913610;29;19923;-71
2023/01/16 15:07:07;;;;;;;;;;;5.60;99.90;;;;;;4915057;29;20302;-71
2023/01/16 15:09:38;;;;;;;;;;;5.50;99.90;;;;;;4912722;29;19934;-70
2023/01/16 15:12:10;;;;;;;;;;;5.50;99.90;;;;;;4913588;29;19927;-72
2023/01/16 15:14:37;;;;;;;;;;;5.50;99.90;;;;;;4915390;29;19927;-71
2023/01/16 15:22:44;;;;;;;;;;;5.50;99.90;;;;;;4915964;29;20326;-73
2023/01/16 15:25:17;;;;;;;;;;;5.50;99.90;;;;;;4915939;29;19966;-70
2023/01/16 15:27:45;;;;;;;;;;;5.50;99.90;;;;;;4921499;29;20311;-71
2023/01/16 15:30:17;;;;;;;;;;;5.50;99.90;;;;;;4923670;29;19975;-71
2023/01/16 15:32:54;;;;;;;;;;;5.40;99.90;;;;;;4921118;29;19938;-71
2023/01/16 15:35:22;;;;;;;;;;;5.40;99.90;;;;;;4919271;29;20310;-69
2023/01/16 15:37:49;;;;;;;;;;;5.40;99.90;;;;;;4925818;29;19966;-71
2023/01/16 15:40:23;;;;;;;;;;;5.40;99.90;;;;;;4920202;29;20295;-71
2023/01/16 15:48:26;;;;;;;;;;;5.30;99.90;;;;;;4924332;29;19973;-69
2023/01/16 15:50:55;;;;;;;;;;;5.30;99.90;;;;;;4917045;29;19931;-71
2023/01/16 15:53:23;;;;;;;;;;;5.30;99.90;;;;;;4924663;29;19930;-70
2023/01/16 15:55:52;;;;;;;;;;;5.30;99.90;;;;;;4919166;29;19931;-70
2023/01/16 15:58:20;;;;;;;;;;;5.30;99.90;;;;;;4916949;29;19934;-69
2023/01/16 16:00:54;;;;;;;;;;;5.20;99.90;;;;;;4911986;29;19935;-70
2023/01/16 16:03:22;;;;;;;;;;;5.20;99.90;;;;;;4906857;29;19954;-69
2023/01/16 16:05:50;;;;;;;;;;;5.20;99.90;;;;;;4922186;29;19928;-67
2023/01/16 16:08:18;;;;;;;;;;;5.20;99.90;;;;;;4921767;29;19943;-68
2023/01/16 16:13:31;;;;;;;;;;;5.20;99.90;;;;;;4924878;29;19923;-71
2023/01/16 16:18:54;;;;;;;;;;;5.20;99.90;;;;;;4915220;29;19969;-69
2023/01/16 16:21:22;;;;;;;;;;;5.20;99.90;;;;;;4918418;29;20285;-70
2023/01/16 16:23:54;;;;;;;;;;;5.20;99.90;;;;;;4918337;29;19927;-69
2023/01/16 16:26:21;;;;;;;;;;;5.20;99.90;;;;;;4916343;29;19927;-67
2023/01/16 16:28:50;;;;;;;;;;;5.20;99.90;;;;;;4913369;29;20391;-69
2023/01/16 16:31:23;;;;;;;;;;;5.20;99.90;;;;;;4917042;29;20398;-70
2023/01/16 16:33:55;;;;;;;;;;;5.20;99.90;;;;;;4928064;29;20018;-70
2023/01/16 16:36:21;;;;;;;;;;;5.20;99.90;;;;;;4922646;29;19962;-69
2023/01/16 16:38:49;;;;;;;;;;;5.20;99.90;;;;;;4929142;29;19953;-71
2023/01/16 16:44:25;;;;;;;;;;;5.20;99.90;;;;;;4911073;29;19923;-70
2023/01/16 16:46:56;;;;;;;;;;;5.10;99.90;;;;;;4923902;29;19930;-70
2023/01/16 16:49:28;;;;;;;;;;;5.10;99.90;;;;;;4956432;23;19931;-75
2023/01/16 16:51:54;;;;;;;;;;;5.10;99.90;;;;;;4933677;29;19930;-73
2023/01/16 16:54:26;;;;;;;;;;;5.10;99.90;;;;;;4935627;29;19927;-75
2023/01/16 16:56:54;;;;;;;;;;;5.10;99.90;;;;;;4931870;29;19933;-75
2023/01/16 16:59:24;;;;;;;;;;;5.10;99.90;;;;;;4927129;29;19927;-74
2023/01/16 17:01:54;;;;;;;;;;;5.10;99.90;;;;;;4937167;29;19927;-73
2023/01/16 17:04:21;;;;;;;;;;;5.10;99.90;;;;;;4924085;29;19993;-73
2023/01/16 17:06:50;;;;;;;;;;;5.10;99.90;;;;;;4935384;29;19926;-73
2023/01/16 17:09:17;;;;;;;;;;;5.10;99.90;;;;;;4930912;29;20317;-73
2023/01/16 17:11:45;;;;;;;;;;;5.10;99.90;;;;;;4941518;29;19927;-73
2023/01/16 17:14:12;;;;;;;;;;;5.10;99.90;;;;;;4930062;29;20406;-72
2023/01/16 17:16:39;;;;;;;;;;;5.10;99.90;;;;;;4932469;29;19931;-74
2023/01/16 17:19:20;;;;;;;;;;;5.10;99.90;;;;;;4936266;29;19934;-74
2023/01/16 17:21:46;;;;;;;;;;;5.20;99.90;;;;;;4931453;29;19938;-74
2023/01/16 17:24:15;;;;;;;;;;;5.10;99.90;;;;;;4936473;29;19933;-74
2023/01/16 17:26:42;;;;;;;;;;;5.10;99.90;;;;;;4938461;29;19927;-71
2023/01/16 17:29:09;;;;;;;;;;;5.10;99.90;;;;;;4929174;29;19935;-76
2023/01/16 17:31:37;;;;;;;;;;;5.20;99.90;;;;;;4927068;29;19935;-73
2023/01/16 17:34:04;;;;;;;;;;;5.20;99.90;;;;;;4931976;29;19927;-71
2023/01/16 17:36:33;;;;;;;;;;;5.20;99.90;;;;;;4929023;29;19949;-72
2023/01/16 17:38:59;;;;;;;;;;;5.30;99.90;;;;;;4936908;29;20451;-75
2023/01/16 17:45:51;;;;;;;;;;;5.30;99.90;;;;;;4939498;29;19927;-74
2023/01/16 17:47:09;;;;;;;;;;;5.30;99.90;;;;;;4941250;29;19926;-75
2023/01/16 17:50:20;;;;;;;;;;;5.20;99.90;;;;;;4934131;29;20275;-76
2023/01/16 17:52:24;;;;;;;;;;;5.20;99.90;;;;;;4927264;29;19962;-73
2023/01/16 17:57:35;;;;;;;;;;;5.10;99.90;;;;;;4933450;29;19930;-77
2023/01/16 18:00:03;;;;;;;;;;;5.00;99.90;;;;;;4931113;29;19966;-73
2023/01/16 18:02:31;;;;;;;;;;;4.90;99.90;;;;;;4935087;29;19969;-74
2023/01/16 18:04:58;;;;;;;;;;;4.90;99.90;;;;;;4940263;29;20306;-73
2023/01/16 18:07:26;;;;;;;;;;;4.90;99.90;;;;;;4930205;29;19971;-76
2023/01/16 18:09:53;;;;;;;;;;;4.80;99.90;;;;;;4932712;29;19930;-75
2023/01/16 18:17:49;;;;;;;;;;;4.80;99.90;;;;;;4930825;29;20406;-71
2023/01/16 18:20:16;;;;;;;;;;;4.80;99.90;;;;;;4935817;29;19927;-73
2023/01/16 18:22:45;;;;;;;;;;;4.70;99.90;;;;;;4939203;29;19927;-70
2023/01/16 18:25:11;;;;;;;;;;;4.70;99.90;;;;;;4932344;29;19926;-73
2023/01/16 18:27:38;;;;;;;;;;;4.70;99.90;;;;;;4927009;29;19927;-70
2023/01/16 18:30:06;;;;;;;;;;;4.70;99.90;;;;;;4927342;29;19934;-77
2023/01/16 18:32:33;;;;;;;;;;;4.70;99.90;;;;;;4934111;29;19927;-73
2023/01/16 18:35:00;;;;;;;;;;;4.70;99.90;;;;;;4933338;29;19926;-71
2023/01/16 18:37:31;;;;;;;;;;;4.70;99.90;;;;;;4934043;29;19966;-69
2023/01/16 19:01:57;;;;;;;;;;;4.20;99.90;;;;;;4932586;29;19929;-69
2023/01/16 19:04:25;;;;;;;;;;;4.20;99.90;;;;;;4933437;29;19970;-68
2023/01/16 19:06:52;;;;;;;;;;;4.20;99.90;;;;;;4929307;29;20367;-70
2023/01/16 19:09:20;;;;;;;;;;;4.20;99.90;;;;;;4932898;29;20349;-70
2023/01/16 19:11:49;;;;;;;;;;;4.30;99.90;;;;;;4929124;29;20338;-73
2023/01/16 19:14:16;;;;;;;;;;;4.20;99.90;;;;;;4926220;29;19956;-72
2023/01/16 19:16:48;;;;;;;;;;;4.10;99.90;;;;;;4927745;29;19934;-72
2023/01/16 19:19:15;;;;;;;;;;;4.10;99.90;;;;;;4931154;29;19938;-70
2023/01/16 19:21:43;;;;;;;;;;;4.00;99.90;;;;;;4926247;29;19927;-74
2023/01/16 19:24:11;;;;;;;;;;;4.00;99.90;;;;;;4930729;29;20045;-71
2023/01/16 19:26:41;;;;;;;;;;;3.90;99.90;;;;;;4929060;29;20338;-71
2023/01/16 19:29:10;;;;;;;;;;;3.90;99.90;;;;;;4927779;29;19931;-73
2023/01/16 19:31:37;;;;;;;;;;;3.90;99.90;;;;;;4925285;29;19938;-71
2023/01/16 19:34:03;;;;;;;;;;;3.90;99.90;;;;;;4927328;29;19935;-70
2023/01/16 19:36:30;;;;;;;;;;;3.90;99.90;;;;;;4925687;29;20515;-70
2023/01/16 19:38:57;;;;;;;;;;;3.90;99.90;;;;;;4932269;29;19934;-70
2023/01/16 19:46:55;;;;;;;;;;;3.90;99.90;;;;;;4931888;29;19950;-68
2023/01/16 19:49:21;;;;;;;;;;;3.90;99.90;;;;;;4929879;29;19934;-70
2023/01/16 19:51:48;;;;;;;;;;;3.90;99.90;;;;;;4936984;29;19934;-69
2023/01/16 19:54:15;;;;;;;;;;;3.90;99.90;;;;;;4936858;29;19938;-69
2023/01/16 19:56:42;;;;;;;;;;;4.00;99.90;;;;;;4935699;29;19927;-69
2023/01/16 19:59:11;;;;;;;;;;;4.00;99.90;;;;;;4935938;29;20338;-70
2023/01/16 20:01:50;;;;;;;;;;;4.00;99.90;;;;;;4934893;29;19931;-70
2023/01/16 20:04:17;;;;;;;;;;;4.00;99.90;;;;;;4933120;29;19978;-72
2023/01/16 20:06:44;;;;;;;;;;;4.00;99.90;;;;;;4933814;29;20473;-70
2023/01/16 20:09:11;;;;;;;;;;;4.00;99.90;;;;;;4932818;29;19933;-72
2023/01/16 20:14:23;;;;;;;;;;;4.00;99.90;;;;;;4936109;29;19954;-71
2023/01/16 20:16:50;;;;;;;;;;;4.10;99.90;;;;;;4933306;29;19927;-72
2023/01/16 20:19:17;;;;;;;;;;;4.10;99.90;;;;;;4930930;29;19931;-72
2023/01/16 20:21:44;;;;;;;;;;;4.10;99.90;;;;;;4934819;29;19986;-72
2023/01/16 20:24:10;;;;;;;;;;;4.10;99.90;;;;;;4934177;29;20309;-72
2023/01/16 20:26:38;;;;;;;;;;;4.10;99.90;;;;;;4938320;29;19927;-72
2023/01/16 20:29:05;;;;;;;;;;;4.10;99.90;;;;;;4933385;29;19934;-72
2023/01/16 20:31:33;;;;;;;;;;;4.10;99.90;;;;;;4932575;29;19930;-72
2023/01/16 20:34:00;;;;;;;;;;;4.10;99.90;;;;;;4933113;29;19977;-72
2023/01/16 20:36:27;;;;;;;;;;;4.20;99.90;;;;;;4930326;29;19927;-72
2023/01/16 20:38:54;;;;;;;;;;;4.20;99.90;;;;;;4933906;29;19927;-72
2023/01/16 20:46:56;;;;;;;;;;;4.10;99.90;;;;;;4929743;29;20357;-71
2023/01/16 20:49:24;;;;;;;;;;;4.20;99.90;;;;;;4934305;29;19966;-75
2023/01/16 20:51:50;;;;;;;;;;;4.20;99.90;;;;;;4935459;29;20025;-72
2023/01/16 20:54:17;;;;;;;;;;;4.20;99.90;;;;;;4930515;29;19927;-73
2023/01/16 20:56:44;;;;;;;;;;;4.20;99.90;;;;;;4933395;29;20012;-72
2023/01/16 20:59:13;;;;;;;;;;;4.20;99.90;;;;;;4933640;29;19927;-72
2023/01/16 21:01:40;;;;;;;;;;;4.20;99.90;;;;;;4933631;29;19927;-72
2023/01/16 21:04:08;;;;;;;;;;;4.20;99.90;;;;;;4932527;29;19927;-72
2023/01/16 21:06:35;;;;;;;;;;;4.10;99.90;;;;;;4932028;29;19934;-72
2023/01/16 21:09:02;;;;;;;;;;;4.00;99.90;;;;;;4926952;29;19931;-73
2023/01/16 21:14:13;;;;;;;;;;;3.90;99.90;;;;;;4920818;29;20461;-73